ADDS METAR Data INFO
IDs: Format: Raw Decoded Include TAF

Data at: 0552 UTC 11 Dec 2017

KAXX 110535Z AUTO 00000KT 10SM CLR M13/M17 A3052 RMK AO2 T11351170
KAXX 110515Z AUTO 00000KT 10SM CLR M13/M16 A3051 RMK AO2 T11281159
KAXX 110455Z AUTO 00000KT 10SM CLR M13/M16 A3052 RMK AO2 T11301162
KAXX 110435Z AUTO 00000KT 10SM CLR M13/M16 A3051 RMK AO2 T11351163
KAXX 110415Z AUTO 00000KT 10SM CLR M12/M17 A3052 RMK AO2 T11201168
KAXX 110355Z AUTO 00000KT 10SM CLR M11/M16 A3051 RMK AO2 T11121162
KAXX 110335Z AUTO 00000KT 10SM CLR M10/M17 A3051 RMK AO2 T11041167
KAXX 110315Z AUTO 00000KT 10SM CLR M09/M17 A3051 RMK AO2 T10951169
KAXX 110255Z AUTO 00000KT 10SM CLR M10/M17 A3051 RMK AO2 T10961169
KAXX 110235Z AUTO 00000KT 10SM CLR M08/M17 A3050 RMK AO2 T10821172
KAXX 110215Z AUTO 00000KT 10SM CLR M07/M17 A3050 RMK AO2 T10731172
KAXX 110155Z AUTO 24004KT 10SM CLR M07/M17 A3049 RMK AO2 T10701173
KAXX 110135Z AUTO 00000KT 10SM CLR M04/M19 A3049 RMK AO2 T10441190
KAXX 110115Z AUTO 28003KT 10SM CLR M04/M19 A3049 RMK AO2 T10371193
KAXX 110055Z AUTO 30003KT 10SM CLR M01/M21 A3049 RMK AO2 T10141207
KAXX 110035Z AUTO 00000KT 10SM CLR 00/M21 A3048 RMK AO2 T00021208
KAXX 110015Z AUTO 00000KT 10SM CLR 03/M22 A3047 RMK AO2 T00311224
KAXX 102355Z AUTO 00000KT 10SM CLR 03/M23 A3047 RMK AO2 T00331230 10106 20023
KAXX 102335Z AUTO 00000KT 10SM CLR 05/M24 A3047 RMK AO2 T00511244
KAXX 102315Z AUTO 00000KT 10SM CLR 07/M23 A3047 RMK AO2 T00661235
KAXX 102255Z AUTO 28006KT 10SM CLR 08/M24 A3047 RMK AO2 T00771237
KAXX 102235Z AUTO 26010G16KT 10SM CLR 08/M24 A3047 RMK AO2 T00841244
KAXX 102215Z AUTO 26012G16KT 10SM CLR 09/M24 A3047 RMK AO2 T00901244
KAXX 102155Z AUTO 24013KT 10SM CLR 10/M25 A3047 RMK AO2 T00951251
KAXX 102135Z AUTO 26009G16KT 10SM CLR 10/M24 A3046 RMK AO2 T00981238
KAXX 102115Z AUTO 25011KT 10SM CLR 10/M24 A3047 RMK AO2 T00981240
KAXX 102055Z AUTO 26010KT 10SM CLR 10/M22 A3047 RMK AO2 T01041221
KAXX 102035Z AUTO 27008KT 10SM CLR 11/M21 A3047 RMK AO2 T01051210
KAXX 102020Z AUTO 26009KT 10SM CLR 10/M21 A3047 RMK AO2 T01041210
KAXX 101955Z AUTO 26010KT 10SM CLR 11/M21 A3048 RMK AO2 T01061207
KAXX 101935Z AUTO 00000KT 10SM CLR 09/M19 A3049 RMK AO2 T00921194
KAXX 101915Z AUTO 00000KT 10SM CLR 09/M18 A3050 RMK AO2 T00871184
KAXX 101855Z AUTO 00000KT 10SM CLR 07/M19 A3051 RMK AO2 T00691187
KAXX 101835Z AUTO 00000KT 10SM CLR 06/M19 A3053 RMK AO2 T00571190
KAXX 101815Z AUTO 00000KT 10SM CLR 04/M19 A3054 RMK AO2 T00391188
KAXX 101755Z AUTO 00000KT 10SM CLR 02/M18 A3055 RMK AO2 T00241181 10024 21170
KAXX 101735Z AUTO 00000KT 10SM CLR 01/M15 A3056 RMK AO2 T00121149
KAXX 101715Z AUTO 00000KT 10SM CLR M01/M16 A3056 RMK AO2 T10061157
KAXX 101655Z AUTO 00000KT 10SM CLR M02/M14 A3058 RMK AO2 T10241136
KAXX 101635Z AUTO 00000KT 10SM CLR M04/M12 A3058 RMK AO2 T10431124
KAXX 101615Z AUTO 00000KT 10SM CLR M07/M12 A3058 RMK AO2 T10661125
KAXX 101555Z AUTO 00000KT 10SM CLR M07/M13 A3058 RMK AO2 T10751133
KAXX 101535Z AUTO 00000KT 10SM CLR M10/M13 A3058 RMK AO2 T10971133
KAXX 101515Z AUTO 00000KT 10SM CLR M11/M15 A3057 RMK AO2 T11101146
KAXX 101455Z AUTO 00000KT 10SM CLR M13/M16 A3058 RMK AO2 T11331158
KAXX 101435Z AUTO 14003KT 10SM CLR M16/M19 A3057 RMK AO2 T11651188
KAXX 101415Z AUTO 00000KT 10SM CLR M17/M19 A3057 RMK AO2 T11681190
KAXX 101355Z AUTO 00000KT 10SM CLR M17/M19 A3057 RMK AO2 T11671189
KAXX 101335Z AUTO 00000KT 10SM CLR M17/M19 A3057 RMK AO2 T11661190
KAXX 101315Z AUTO 00000KT 10SM CLR M16/M18 A3056 RMK AO2 T11611184
KAXX 101255Z AUTO 00000KT 10SM CLR M16/M18 A3056 RMK AO2 T11571177
KAXX 101235Z AUTO 00000KT 10SM CLR M16/M19 A3055 RMK AO2 T11641187
KAXX 101215Z AUTO 00000KT 10SM CLR M16/M18 A3055 RMK AO2 T11651185
KAXX 101155Z AUTO 15003KT 10SM CLR M15/M17 A3055 RMK AO2 T11531173 11119 21166
KAXX 101135Z AUTO 00000KT 10SM CLR M15/M17 A3055 RMK AO2 T11541175
KAXX 101115Z AUTO 00000KT 10SM CLR M16/M18 A3055 RMK AO2 T11571178
KAXX 101055Z AUTO 00000KT 10SM CLR M16/M19 A3055 RMK AO2 T11651189
KAXX 101035Z AUTO 00000KT 10SM CLR M16/M18 A3055 RMK AO2 T11561182
KAXX 101015Z AUTO 00000KT 10SM CLR M16/M18 A3055 RMK AO2 T11581182
KAXX 100955Z AUTO 00000KT 10SM CLR M14/M17 A3055 RMK AO2 T11421168
KAXX 100935Z AUTO 00000KT 10SM CLR M15/M18 A3055 RMK AO2 T11551183
KAXX 100915Z AUTO 00000KT 10SM CLR M14/M17 A3054 RMK AO2 T11431166
KAXX 100855Z AUTO 00000KT 10SM CLR M14/M16 A3053 RMK AO2 T11431164
KAXX 100835Z AUTO 00000KT 10SM CLR M14/M16 A3053 RMK AO2 T11401164
KAXX 100815Z AUTO 00000KT 10SM CLR M13/M16 A3053 RMK AO2 T11341158
KAXX 100755Z AUTO 25006KT 10SM CLR M14/M16 A3053 RMK AO2 T11411165
KAXX 100735Z AUTO 14003KT 10SM CLR M14/M16 A3053 RMK AO2 T11401165
KAXX 100715Z AUTO 14003KT 10SM CLR M13/M16 A3053 RMK AO2 T11311160
KAXX 100655Z AUTO 00000KT 10SM CLR M14/M16 A3053 RMK AO2 T11381163
KAXX 100635Z AUTO 00000KT 10SM CLR M13/M15 A3054 RMK AO2 T11301155
KAXX 100615Z AUTO 00000KT 10SM CLR M13/M16 A3054 RMK AO2 T11301156
KAXX 100555Z AUTO 00000KT 10SM CLR M12/M15 A3054 RMK AO2 T11231151 10020 21126 400851165
KAXX 100535Z AUTO 00000KT 10SM CLR M11/M15 A3054 RMK AO2 T11121151
KAXX 100515Z AUTO 00000KT 10SM CLR M11/M15 A3053 RMK AO2 T11081155
KAXX 100455Z AUTO 00000KT 10SM CLR M10/M15 A3052 RMK AO2 T11001152
KAXX 100435Z AUTO 06003KT 10SM CLR M10/M15 A3052 RMK AO2 T10971152
KAXX 100415Z AUTO 00000KT 10SM CLR M09/M15 A3051 RMK AO2 T10901152
KAXX 100355Z AUTO 00000KT 10SM CLR M08/M15 A3051 RMK AO2 T10831153
KAXX 100335Z AUTO 00000KT 10SM CLR M07/M15 A3050 RMK AO2 T10711154
KAXX 100315Z AUTO 12004KT 10SM CLR M06/M15 A3050 RMK AO2 T10641154
KAXX 100255Z AUTO 00000KT 10SM CLR M04/M17 A3049 RMK AO2 T10431170
KAXX 100235Z AUTO 30003KT 10SM CLR M05/M17 A3049 RMK AO2 T10471168
KAXX 100215Z AUTO 00000KT 10SM CLR M05/M17 A3049 RMK AO2 T10461168
KAXX 100155Z AUTO 27010KT 10SM CLR M05/M15 A3048 RMK AO2 T10531152
KAXX 100135Z AUTO 18007KT 10SM CLR M04/M16 A3047 RMK AO2 T10361161
KAXX 100115Z AUTO 19003KT 10SM CLR M05/M16 A3047 RMK AO2 T10471156
KAXX 100055Z AUTO 00000KT 10SM CLR M01/M17 A3047 RMK AO2 T10131175
KAXX 100035Z AUTO 00000KT 10SM CLR 00/M19 A3047 RMK AO2 T10041189
KAXX 100015Z AUTO 16008KT 10SM CLR 00/M18 A3045 RMK AO2 T10051181
KAXX 092355Z AUTO 00000KT 10SM CLR 02/M20 A3045 RMK AO2 T00181197 10085 20011
KAXX 092335Z AUTO 30005KT 10SM CLR 02/M18 A3045 RMK AO2 T00171183
KAXX 092315Z AUTO 31006KT 10SM CLR 05/M18 A3045 RMK AO2 T00471182
KAXX 092255Z AUTO 30004KT 10SM CLR 06/M19 A3045 RMK AO2 T00641187
KAXX 092235Z AUTO 29006KT 10SM CLR 07/M19 A3045 RMK AO2 T00721190
KAXX 092215Z AUTO 24006KT 10SM CLR 08/M19 A3045 RMK AO2 T00761191
KAXX 092155Z AUTO 22007KT 10SM CLR 08/M18 A3044 RMK AO2 T00811185
KAXX 092135Z AUTO 26007KT 10SM CLR 08/M17 A3044 RMK AO2 T00801173
KAXX 092115Z AUTO 27008KT 10SM CLR 08/M17 A3044 RMK AO2 T00831169
KAXX 092055Z AUTO 24008KT 10SM CLR 08/M17 A3045 RMK AO2 T00811173
KAXX 092035Z AUTO 24008KT 10SM CLR 08/M18 A3045 RMK AO2 T00821179
KAXX 092015Z AUTO 21006KT 10SM CLR 08/M19 A3045 RMK AO2 T00831187
KAXX 091955Z AUTO 15005KT 10SM CLR 08/M19 A3045 RMK AO2 T00781189
KAXX 091935Z AUTO 25004KT 10SM CLR 08/M18 A3045 RMK AO2 T00781184
KAXX 091915Z AUTO 24007KT 10SM CLR 08/M18 A3046 RMK AO2 T00781177
KAXX 091855Z AUTO 00000KT 10SM CLR 07/M17 A3047 RMK AO2 T00741174
KAXX 091835Z AUTO 00000KT 10SM CLR 06/M17 A3048 RMK AO2 T00631169
KAXX 091815Z AUTO 00000KT 10SM CLR 06/M16 A3049 RMK AO2 T00561165
KAXX 091755Z AUTO 00000KT 10SM CLR 04/M14 A3051 RMK AO2 T00401136 10040 21165